createdAt,value
2023-05-20T00:01:52.389Z,102330.19
2023-05-20T00:04:19.157Z,102333.06
2023-05-20T00:06:46.130Z,102325.91
2023-05-20T00:09:12.742Z,102330.47
2023-05-20T00:11:39.333Z,102327.91
2023-05-20T00:14:06.010Z,102325.19
2023-05-20T00:16:32.778Z,102326.28
2023-05-20T00:19:00.866Z,102331.00
2023-05-20T00:21:27.446Z,102322.09
2023-05-20T00:23:54.221Z,102326.78
2023-05-20T00:26:20.885Z,102334.19
2023-05-20T00:28:47.420Z,102321.97
2023-05-20T00:31:14.096Z,102330.50
2023-05-20T00:33:40.666Z,102341.50
2023-05-20T00:36:08.686Z,102331.72
2023-05-20T00:38:35.279Z,102330.25
2023-05-20T00:41:01.913Z,102331.22
2023-05-20T00:43:28.416Z,102328.66
2023-05-20T00:45:55.769Z,102335.94
2023-05-20T00:48:22.675Z,102329.03
2023-05-20T00:50:50.007Z,102331.16
2023-05-20T00:53:18.445Z,102325.94
2023-05-20T00:55:45.175Z,102325.34
2023-05-20T00:58:11.800Z,102324.72
2023-05-20T01:00:39.220Z,102320.34
2023-05-20T01:03:06.060Z,102319.63
2023-05-20T01:05:32.954Z,102316.94
2023-05-20T01:07:59.935Z,102314.31
2023-05-20T01:10:28.859Z,102317.41
2023-05-20T01:12:59.197Z,102313.09
2023-05-20T01:15:27.508Z,102313.34
2023-05-20T01:17:58.534Z,102312.50
2023-05-20T01:20:25.621Z,102321.59
2023-05-20T01:22:55.625Z,102317.16
2023-05-20T01:25:23.077Z,102319.00
2023-05-20T01:27:51.524Z,102313.72
2023-05-20T01:30:18.745Z,102312.97
2023-05-20T01:32:48.791Z,102312.34
2023-05-20T01:35:16.981Z,102303.47
2023-05-20T01:37:44.563Z,102306.16
2023-05-20T01:40:15.392Z,102299.16
2023-05-20T01:42:43.558Z,102300.91
2023-05-20T01:45:10.962Z,102297.22
2023-05-20T01:47:37.685Z,102299.06
2023-05-20T01:50:04.798Z,102290.16
2023-05-20T01:52:31.521Z,102293.13
2023-05-20T01:54:58.260Z,102301.38
2023-05-20T01:57:26.191Z,102297.94
2023-05-20T01:59:52.856Z,102287.31
2023-05-20T02:02:19.480Z,102290.53
2023-05-20T02:04:47.407Z,102290.03
2023-05-20T02:07:13.983Z,102283.84
2023-05-20T02:09:40.865Z,102288.53
2023-05-20T02:12:08.149Z,102290.38
2023-05-20T02:14:36.089Z,102294.19
2023-05-20T02:17:03.390Z,102291.59
2023-05-20T02:19:30.149Z,102294.44
2023-05-20T02:21:57.104Z,102294.56
2023-05-20T02:24:23.708Z,102298.25
2023-05-20T02:26:50.301Z,102293.81
2023-05-20T02:29:17.064Z,102292.94
2023-05-20T02:31:45.003Z,102302.03
2023-05-20T02:34:11.607Z,102294.16
2023-05-20T02:36:38.230Z,102291.72
2023-05-20T02:39:04.907Z,102307.94
2023-05-20T02:41:31.534Z,102290.94
2023-05-20T02:43:58.140Z,102288.22
2023-05-20T02:46:24.753Z,102304.72
2023-05-20T02:48:52.756Z,102296.84
2023-05-20T02:51:19.343Z,102298.56
2023-05-20T02:53:46.395Z,102303.97
2023-05-20T02:56:12.940Z,102304.22
2023-05-20T02:58:39.574Z,102308.78
2023-05-20T03:01:06.221Z,102299.06
2023-05-20T03:03:33.521Z,102313.56
2023-05-20T03:06:01.465Z,102309.13
2023-05-20T03:08:28.055Z,102311.97
2023-05-20T03:10:54.610Z,102309.38
2023-05-20T03:13:21.211Z,102307.63
2023-05-20T03:15:47.835Z,102313.91
2023-05-20T03:18:14.465Z,102314.88
2023-05-20T03:20:41.015Z,102321.16
2023-05-20T03:23:09.307Z,102318.47
2023-05-20T03:25:36.661Z,102320.91
2023-05-20T03:28:03.377Z,102320.81
2023-05-20T03:30:30.063Z,102318.00
2023-05-20T03:32:56.806Z,102319.75
2023-05-20T03:35:23.510Z,102316.66
2023-05-20T03:37:50.066Z,102324.41
2023-05-20T03:40:18.013Z,102322.22
2023-05-20T03:42:44.589Z,102316.00
2023-05-20T03:45:11.654Z,102323.06
2023-05-20T03:47:38.276Z,102315.69
2023-05-20T03:50:05.835Z,102315.69
2023-05-20T03:52:32.580Z,102316.38
2023-05-20T03:54:59.353Z,102320.25
2023-05-20T03:57:27.317Z,102322.63
2023-05-20T03:59:54.280Z,102320.16
2023-05-20T04:02:21.059Z,102317.63
2023-05-20T04:04:47.835Z,102311.22
2023-05-20T04:07:14.455Z,102302.84
2023-05-20T04:09:41.087Z,102309.41
2023-05-20T04:12:07.958Z,102308.69
2023-05-20T04:14:35.938Z,102310.03
2023-05-20T04:17:03.637Z,102318.50
2023-05-20T04:19:30.525Z,102321.50
2023-05-20T04:21:57.193Z,102320.25
2023-05-20T04:24:23.821Z,102316.19
2023-05-20T04:26:50.590Z,102311.28
2023-05-20T04:29:17.167Z,102311.44
2023-05-20T04:31:45.322Z,102313.97
2023-05-20T04:34:11.975Z,102310.50
2023-05-20T04:36:38.673Z,102319.31
2023-05-20T04:39:05.418Z,102319.19
2023-05-20T04:41:32.079Z,102312.22
2023-05-20T04:43:58.985Z,102311.56
2023-05-20T04:46:25.666Z,102317.91
2023-05-20T04:48:53.627Z,102318.28
2023-05-20T04:51:20.272Z,102329.53
2023-05-20T04:53:46.844Z,102326.56
2023-05-20T04:56:13.472Z,102326.13
2023-05-20T04:58:40.067Z,102317.50
2023-05-20T05:01:06.701Z,102327.97
2023-05-20T05:03:35.142Z,102313.91
2023-05-20T05:06:04.676Z,102315.16
2023-05-20T05:08:31.307Z,102316.19
2023-05-20T05:10:58.080Z,102308.41
2023-05-20T05:13:24.652Z,102305.06
2023-05-20T05:15:58.688Z,102292.75
2023-05-20T05:18:25.542Z,102302.00
2023-05-20T05:20:59.231Z,102298.31
2023-05-20T05:23:27.207Z,102299.19
2023-05-20T05:25:53.774Z,102296.22
2023-05-20T05:28:20.489Z,102298.66
2023-05-20T05:30:47.180Z,102298.44
2023-05-20T05:33:14.641Z,102299.91
2023-05-20T05:35:41.701Z,102308.50
2023-05-20T05:38:08.496Z,102302.22
2023-05-20T05:40:36.561Z,102305.06
2023-05-20T05:43:03.134Z,102300.50
2023-05-20T05:45:29.784Z,102299.75
2023-05-20T05:47:56.405Z,102293.34
2023-05-20T05:50:23.079Z,102297.78
2023-05-20T05:52:49.675Z,102297.53
2023-05-20T05:55:16.825Z,102293.44
2023-05-20T05:57:45.144Z,102291.94
2023-05-20T06:00:12.846Z,102293.16
2023-05-20T06:02:39.525Z,102292.78
2023-05-20T06:05:07.432Z,102289.66
2023-05-20T06:07:34.029Z,102285.72
2023-05-20T06:10:00.668Z,102283.59
2023-05-20T06:12:27.356Z,102283.19
2023-05-20T06:14:55.480Z,102289.81
2023-05-20T06:17:22.133Z,102284.97
2023-05-20T06:19:48.778Z,102278.28
2023-05-20T06:22:15.433Z,102281.88
2023-05-20T06:24:42.034Z,102278.06
2023-05-20T06:27:08.613Z,102286.63
2023-05-20T06:29:35.170Z,102287.50
2023-05-20T06:32:03.143Z,102285.94
2023-05-20T06:34:29.686Z,102291.94
2023-05-20T06:36:56.244Z,102294.28
2023-05-20T06:39:22.836Z,102294.16
2023-05-20T06:41:49.450Z,102294.75
2023-05-20T06:44:16.005Z,102298.69
2023-05-20T06:46:42.728Z,102293.59
2023-05-20T06:49:10.703Z,102293.03
2023-05-20T06:51:37.286Z,102289.69
2023-05-20T06:54:03.861Z,102280.09
2023-05-20T06:56:30.430Z,102281.53
2023-05-20T06:58:57.003Z,102286.34
2023-05-20T07:01:23.596Z,102285.94
2023-05-20T07:03:50.339Z,102284.50
2023-05-20T07:06:18.297Z,102281.94
2023-05-20T07:08:44.993Z,102285.53
2023-05-20T07:11:11.579Z,102283.38
2023-05-20T07:13:38.386Z,102283.84
2023-05-20T07:16:05.586Z,102279.97
2023-05-20T07:18:32.326Z,102281.00
2023-05-20T07:20:58.961Z,102284.59
2023-05-20T07:23:26.959Z,102287.03
2023-05-20T07:25:53.674Z,102291.34
2023-05-20T07:28:20.863Z,102283.03
2023-05-20T07:30:47.430Z,102280.31
2023-05-20T07:33:14.060Z,102273.88
2023-05-20T07:35:40.842Z,102266.59
2023-05-20T07:38:07.406Z,102272.88
2023-05-20T07:40:35.503Z,102264.16
2023-05-20T07:43:02.298Z,102264.44
2023-05-20T07:45:28.913Z,102269.03
2023-05-20T07:47:55.668Z,102258.47
2023-05-20T07:50:22.405Z,102255.16
2023-05-20T07:55:21.665Z,102256.06
2023-05-20T07:57:49.612Z,102253.63
2023-05-20T08:00:16.439Z,102250.25
2023-05-20T08:02:43.210Z,102242.78
2023-05-20T08:05:10.145Z,102241.81
2023-05-20T08:07:36.728Z,102244.50
2023-05-20T08:10:03.964Z,102250.69
2023-05-20T08:12:30.577Z,102247.09
2023-05-20T08:14:58.580Z,102239.06
2023-05-20T08:17:25.243Z,102244.06
2023-05-20T08:19:51.902Z,102244.66
2023-05-20T08:22:19.722Z,102242.66
2023-05-20T08:24:46.334Z,102236.03
2023-05-20T08:27:12.965Z,102232.16
2023-05-20T08:29:39.652Z,102231.72
2023-05-20T08:32:08.107Z,102222.63
2023-05-20T08:34:34.654Z,102218.91
2023-05-20T08:37:01.375Z,102221.44
2023-05-20T08:39:27.973Z,102222.25
2023-05-20T08:41:54.606Z,102217.63
2023-05-20T08:44:22.615Z,102211.81
2023-05-20T08:46:50.365Z,102216.75
2023-05-20T08:49:19.348Z,102199.38
2023-05-20T08:51:46.182Z,102208.69
2023-05-20T08:54:14.490Z,102199.78
2023-05-20T08:56:41.718Z,102212.59
2023-05-20T08:59:09.244Z,102209.72
2023-05-20T09:01:41.284Z,102207.06
2023-05-20T09:04:07.939Z,102200.03
2023-05-20T09:06:43.975Z,102195.50
2023-05-20T09:09:11.165Z,102190.47
2023-05-20T09:11:38.079Z,102201.41
2023-05-20T09:14:04.750Z,102197.66
2023-05-20T09:16:31.548Z,102198.38
2023-05-20T09:18:58.358Z,102190.38
2023-05-20T09:21:26.752Z,102210.56
2023-05-20T09:23:54.866Z,102199.81
2023-05-20T09:26:21.448Z,102200.69
2023-05-20T09:28:48.003Z,102195.41
2023-05-20T09:31:14.952Z,102202.28
2023-05-20T09:33:41.563Z,102193.72
2023-05-20T09:36:09.187Z,102196.66
2023-05-20T09:38:37.671Z,102190.69
2023-05-20T09:41:07.939Z,102198.59
2023-05-20T09:43:34.946Z,102197.25
2023-05-20T09:46:02.138Z,102207.19
2023-05-20T09:48:32.166Z,102202.06
2023-05-20T09:51:01.729Z,102192.13
2023-05-20T09:53:28.801Z,102194.16
2023-05-20T09:55:55.869Z,102192.28
2023-05-20T09:58:24.051Z,102194.84
2023-05-20T10:00:50.745Z,102188.75
2023-05-20T10:03:18.139Z,102198.00
2023-05-20T10:05:51.979Z,102187.09
2023-05-20T10:08:48.049Z,102174.31
2023-05-20T10:11:23.388Z,102187.19
2023-05-20T10:14:26.205Z,102179.66
2023-05-20T10:17:07.514Z,102175.03
2023-05-20T10:19:35.032Z,102174.34
2023-05-20T10:22:02.973Z,102171.97
2023-05-20T10:24:31.147Z,102162.41
2023-05-20T10:26:58.690Z,102158.19
2023-05-20T10:29:26.648Z,102163.34
2023-05-20T10:31:54.107Z,102160.25
2023-05-20T10:34:21.895Z,102154.78
2023-05-20T10:36:58.281Z,102161.97
2023-05-20T10:39:26.645Z,102158.53
2023-05-20T10:41:53.305Z,102155.13
2023-05-20T10:44:19.908Z,102145.03
2023-05-20T10:49:34.139Z,102149.16
2023-05-20T10:52:00.795Z,102130.28
2023-05-20T10:54:27.768Z,102140.25
2023-05-20T10:56:55.064Z,102133.72
2023-05-20T10:59:22.369Z,102136.44
2023-05-20T11:01:50.850Z,102127.03
2023-05-20T11:04:17.962Z,102135.44
2023-05-20T11:06:50.585Z,102124.81
2023-05-20T11:09:17.371Z,102128.44
2023-05-20T11:11:44.051Z,102122.59
2023-05-20T11:14:10.830Z,102108.53
2023-05-20T11:16:37.483Z,102119.81
2023-05-20T11:19:07.264Z,102119.50
2023-05-20T11:21:33.948Z,102118.16
2023-05-20T11:24:00.677Z,102124.31
2023-05-20T11:26:29.579Z,102118.34
2023-05-20T11:28:56.553Z,102118.84
2023-05-20T11:31:23.197Z,102113.00
2023-05-20T11:33:50.687Z,102120.88
2023-05-20T11:36:27.515Z,102110.75
2023-05-20T11:38:56.924Z,102101.53
2023-05-20T11:41:24.644Z,102096.91
2023-05-20T11:43:56.858Z,102091.06
2023-05-20T11:46:23.602Z,102089.00
2023-05-20T11:48:53.893Z,102095.69
2023-05-20T11:51:24.425Z,102095.28
2023-05-20T11:53:51.029Z,102092.38
2023-05-20T11:56:17.766Z,102083.13
2023-05-20T11:58:44.564Z,102079.22
2023-05-20T12:01:21.768Z,102081.25
2023-05-20T12:03:49.484Z,102069.94
2023-05-20T12:06:17.266Z,102082.78
2023-05-20T12:08:45.384Z,102074.38
2023-05-20T12:11:11.966Z,102067.31
2023-05-20T12:13:39.631Z,102063.00
2023-05-20T12:16:06.665Z,102061.44
2023-05-20T12:18:33.751Z,102058.66
2023-05-20T12:21:00.654Z,102054.50
2023-05-20T12:23:27.367Z,102052.44
2023-05-20T12:25:55.309Z,102054.16
2023-05-20T12:28:21.877Z,102039.75
2023-05-20T12:30:48.474Z,102029.06
2023-05-20T12:33:15.079Z,102038.53
2023-05-20T12:35:42.504Z,102028.78
2023-05-20T12:38:09.631Z,102023.63
2023-05-20T12:40:37.315Z,102023.72
2023-05-20T12:43:06.089Z,102029.81
2023-05-20T12:45:32.952Z,102024.22
2023-05-20T12:47:59.854Z,102024.38
2023-05-20T12:50:27.219Z,102014.88
2023-05-20T12:52:53.878Z,102008.09
2023-05-20T12:55:20.482Z,102011.22
2023-05-20T12:57:47.394Z,102008.88
2023-05-20T13:00:16.480Z,102010.22
2023-05-20T13:02:43.525Z,101999.88
2023-05-20T13:05:10.810Z,101992.66
2023-05-20T13:07:37.652Z,102002.22
2023-05-20T13:10:05.344Z,101984.72
2023-05-20T13:12:31.996Z,101976.72
2023-05-20T13:14:58.761Z,101989.66
2023-05-20T13:17:27.274Z,101995.94
2023-05-20T13:19:53.987Z,101987.72
2023-05-20T13:22:20.598Z,101968.28
2023-05-20T13:24:47.271Z,101967.63
2023-05-20T13:27:13.978Z,101980.25
2023-05-20T13:29:40.622Z,101977.03
2023-05-20T13:32:07.574Z,101963.13
2023-05-20T13:34:35.584Z,101956.28
2023-05-20T13:37:02.338Z,101952.56
2023-05-20T13:39:28.899Z,101955.97
2023-05-20T13:41:55.562Z,101957.31
2023-05-20T13:44:22.210Z,101950.72
2023-05-20T13:46:49.077Z,101930.59
2023-05-20T13:49:15.730Z,101936.81
2023-05-20T13:51:43.711Z,101933.22
2023-05-20T13:54:10.290Z,101932.47
2023-05-20T13:56:37.087Z,101927.91
2023-05-20T13:59:04.017Z,101926.53
2023-05-20T14:01:30.912Z,101931.91
2023-05-20T14:03:57.625Z,101922.53
2023-05-20T14:06:24.392Z,101910.47
2023-05-20T14:08:54.330Z,101922.38
2023-05-20T14:11:20.951Z,101925.88
2023-05-20T14:13:47.563Z,101927.84
2023-05-20T14:16:14.378Z,101928.03
2023-05-20T14:18:40.990Z,101928.03
2023-05-20T14:21:07.596Z,101917.28
2023-05-20T14:23:34.168Z,101920.94
2023-05-20T14:26:02.181Z,101915.94
2023-05-20T14:28:28.769Z,101909.09
2023-05-20T14:30:55.421Z,101921.44
2023-05-20T14:33:22.045Z,101909.50
2023-05-20T14:35:48.700Z,101893.75
2023-05-20T14:38:15.285Z,101893.84
2023-05-20T14:40:41.934Z,101891.97
2023-05-20T14:43:09.847Z,101887.94
2023-05-20T14:45:36.462Z,101893.47
2023-05-20T14:48:03.168Z,101882.69
2023-05-20T14:50:29.820Z,101880.22
2023-05-20T14:52:56.361Z,101885.34
2023-05-20T14:55:23.039Z,101876.44
2023-05-20T14:57:49.759Z,101879.22
2023-05-20T15:00:17.882Z,101878.38
2023-05-20T15:02:44.527Z,101878.78
2023-05-20T15:05:11.237Z,101872.41
2023-05-20T15:07:38.129Z,101874.22
2023-05-20T15:10:09.788Z,101860.59
2023-05-20T15:12:36.361Z,101869.66
2023-05-20T15:15:03.154Z,101872.34
2023-05-20T15:17:31.158Z,101862.56
2023-05-20T15:19:57.925Z,101866.06
2023-05-20T15:22:24.514Z,101863.06
2023-05-20T15:24:51.079Z,101852.19
2023-05-20T15:27:17.675Z,101863.38
2023-05-20T15:29:44.453Z,101867.56
2023-05-20T15:32:11.049Z,101862.06
2023-05-20T15:34:39.029Z,101858.00
2023-05-20T15:37:05.729Z,101856.44
2023-05-20T15:39:32.443Z,101859.97
2023-05-20T15:41:59.019Z,101857.63
2023-05-20T15:44:25.691Z,101854.59
2023-05-20T15:46:52.350Z,101839.00
2023-05-20T15:49:18.979Z,101848.84
2023-05-20T15:51:55.765Z,101836.03
2023-05-20T15:54:28.768Z,101834.72
2023-05-20T15:56:55.394Z,101830.47
2023-05-20T15:59:21.956Z,101832.19
2023-05-20T16:01:48.605Z,101833.34
2023-05-20T16:04:15.357Z,101830.31
2023-05-20T16:06:42.184Z,101816.63
2023-05-20T16:09:10.109Z,101823.63
2023-05-20T16:11:36.707Z,101820.28
2023-05-20T16:14:03.301Z,101820.44
2023-05-20T16:16:29.992Z,101824.53
2023-05-20T16:18:58.245Z,101826.13
2023-05-20T16:21:25.080Z,101819.31
2023-05-20T16:23:51.718Z,101809.22
2023-05-20T16:26:19.782Z,101809.53
2023-05-20T16:28:46.502Z,101816.38
2023-05-20T16:31:13.050Z,101806.91
2023-05-20T16:33:39.625Z,101796.56
2023-05-20T16:36:06.583Z,101791.41
2023-05-20T16:38:33.193Z,101796.94
2023-05-20T16:40:59.881Z,101790.53
2023-05-20T16:43:28.107Z,101791.81
2023-05-20T16:45:54.789Z,101794.31
2023-05-20T16:48:21.597Z,101793.84
2023-05-20T16:50:48.264Z,101797.66
2023-05-20T16:53:16.557Z,101795.94
2023-05-20T16:55:43.368Z,101787.94
2023-05-20T16:58:09.977Z,101791.16
2023-05-20T17:00:37.948Z,101786.56
2023-05-20T17:03:04.566Z,101789.53
2023-05-20T17:05:31.206Z,101785.03
2023-05-20T17:07:57.843Z,101790.94
2023-05-20T17:10:24.428Z,101791.34
2023-05-20T17:12:51.198Z,101784.22
2023-05-20T17:15:17.824Z,101798.34
2023-05-20T17:17:46.032Z,101794.69
2023-05-20T17:20:13.405Z,101785.50
2023-05-20T17:22:40.005Z,101780.78
2023-05-20T17:25:07.197Z,101786.41
2023-05-20T17:27:33.792Z,101791.22
2023-05-20T17:30:00.413Z,101780.13
2023-05-20T17:32:27.098Z,101776.47
2023-05-20T17:34:55.033Z,101787.19
2023-05-20T17:37:21.641Z,101779.72
2023-05-20T17:39:48.291Z,101779.84
2023-05-20T17:42:15.003Z,101782.91
2023-05-20T17:44:41.690Z,101777.97
2023-05-20T17:47:08.288Z,101782.16
2023-05-20T17:49:34.993Z,101793.97
2023-05-20T17:52:02.987Z,101788.00
2023-05-20T17:54:29.563Z,101787.47
2023-05-20T17:56:56.131Z,101781.97
2023-05-20T17:59:22.809Z,101778.97
2023-05-20T18:01:49.590Z,101784.38
2023-05-20T18:04:16.298Z,101779.25
2023-05-20T18:06:43.268Z,101786.19
2023-05-20T18:09:11.215Z,101781.91
2023-05-20T18:11:37.943Z,101785.06
2023-05-20T18:14:04.566Z,101776.53
2023-05-20T18:16:31.366Z,101783.25
2023-05-20T18:18:58.282Z,101777.09
2023-05-20T18:21:25.331Z,101777.31
2023-05-20T18:23:52.007Z,101776.16
2023-05-20T18:26:20.204Z,101773.31
2023-05-20T18:28:46.897Z,101774.94
2023-05-20T18:31:13.541Z,101775.69
2023-05-20T18:33:40.173Z,101772.81
2023-05-20T18:36:07.706Z,101767.06
2023-05-20T18:38:34.390Z,101765.75
2023-05-20T18:41:01.023Z,101768.84
2023-05-20T18:43:29.054Z,101767.34
2023-05-20T18:45:55.665Z,101779.53
2023-05-20T18:48:26.642Z,101777.84
2023-05-20T18:50:54.041Z,101781.28
2023-05-20T18:53:20.590Z,101782.72
2023-05-20T18:55:47.783Z,101779.66
2023-05-20T18:58:14.750Z,101775.75
2023-05-20T19:00:42.786Z,101780.78
2023-05-20T19:03:09.464Z,101791.28
2023-05-20T19:05:36.304Z,101783.59
2023-05-20T19:08:03.560Z,101785.88
2023-05-20T19:10:30.308Z,101787.09
2023-05-20T19:12:56.924Z,101789.34
2023-05-20T19:15:23.470Z,101805.31
2023-05-20T19:17:51.473Z,101794.72
2023-05-20T19:20:18.072Z,101789.59
2023-05-20T19:22:44.670Z,101792.03
2023-05-20T19:25:11.254Z,101797.22
2023-05-20T19:27:37.853Z,101795.88
2023-05-20T19:30:05.185Z,101798.97
2023-05-20T19:32:31.902Z,101797.63
2023-05-20T19:34:59.986Z,101794.22
2023-05-20T19:37:26.613Z,101791.84
2023-05-20T19:39:53.456Z,101793.22
2023-05-20T19:42:20.093Z,101787.25
2023-05-20T19:44:46.767Z,101785.75
2023-05-20T19:47:13.562Z,101788.84
2023-05-20T19:49:40.284Z,101791.91
2023-05-20T19:52:08.262Z,101802.22
2023-05-20T19:54:34.809Z,101802.75
2023-05-20T19:57:01.402Z,101806.69
2023-05-20T19:59:28.075Z,101806.19
2023-05-20T20:01:54.737Z,101807.41
2023-05-20T20:04:21.321Z,101810.50
2023-05-20T20:06:47.894Z,101812.59
2023-05-20T20:09:16.014Z,101806.78
2023-05-20T20:11:42.648Z,101804.41
2023-05-20T20:14:09.341Z,101804.72
2023-05-20T20:16:36.052Z,101806.13
2023-05-20T20:19:02.704Z,101804.78
2023-05-20T20:21:29.390Z,101804.97
2023-05-20T20:23:55.967Z,101800.69
2023-05-20T20:26:23.878Z,101806.53
2023-05-20T20:28:50.412Z,101796.97
2023-05-20T20:31:17.151Z,101804.84
2023-05-20T20:33:43.942Z,101801.78
2023-05-20T20:36:10.597Z,101806.75
2023-05-20T20:38:37.153Z,101802.50
2023-05-20T20:41:03.735Z,101803.69
2023-05-20T20:43:31.761Z,101792.25
2023-05-20T20:45:58.319Z,101787.13
2023-05-20T20:48:24.915Z,101796.72
2023-05-20T20:50:51.515Z,101793.28
2023-05-20T20:53:18.152Z,101791.94
2023-05-20T20:55:45.279Z,101799.47
2023-05-20T20:58:12.116Z,101796.06
2023-05-20T21:00:40.257Z,101795.19
2023-05-20T21:03:07.066Z,101791.06
2023-05-20T21:05:34.307Z,101791.22
2023-05-20T21:08:01.315Z,101786.97
2023-05-20T21:10:27.910Z,101786.47
2023-05-20T21:12:54.931Z,101778.78
2023-05-20T21:15:21.832Z,101774.00
2023-05-20T21:17:49.856Z,101773.50
2023-05-20T21:20:17.681Z,101764.94
2023-05-20T21:22:46.086Z,101766.31
2023-05-20T21:25:12.742Z,101760.50
2023-05-20T21:27:39.632Z,101766.34
2023-05-20T21:30:07.681Z,101757.63
2023-05-20T21:32:34.247Z,101761.53
2023-05-20T21:35:02.353Z,101759.16
2023-05-20T21:37:28.978Z,101759.50
2023-05-20T21:39:55.627Z,101768.03
2023-05-20T21:42:22.566Z,101763.94
2023-05-20T21:44:49.227Z,101769.09
2023-05-20T21:47:16.114Z,101774.03
2023-05-20T21:49:42.904Z,101762.41
2023-05-20T21:52:10.839Z,101765.31
2023-05-20T21:54:37.427Z,101764.81
2023-05-20T21:57:04.111Z,101758.63
2023-05-20T21:59:30.674Z,101765.31
2023-05-20T22:01:57.273Z,101753.88
2023-05-20T22:04:23.956Z,101747.69
2023-05-20T22:06:50.840Z,101745.31
2023-05-20T22:09:18.861Z,101750.44
2023-05-20T22:11:45.401Z,101747.19
2023-05-20T22:14:11.978Z,101748.41
2023-05-20T22:16:38.591Z,101747.81
2023-05-20T22:19:05.228Z,101744.41
2023-05-20T22:21:34.229Z,101740.97
2023-05-20T22:24:06.525Z,101743.22
2023-05-20T22:26:34.609Z,101744.41
2023-05-20T22:29:01.324Z,101747.47
2023-05-20T22:31:28.045Z,101736.00
2023-05-20T22:33:54.721Z,101742.69
2023-05-20T22:36:21.422Z,101738.38
2023-05-20T22:38:48.064Z,101746.59
2023-05-20T22:41:14.724Z,101742.16
2023-05-20T22:43:42.704Z,101737.72
2023-05-20T22:46:09.392Z,101740.44
2023-05-20T22:48:35.980Z,101726.94
2023-05-20T22:51:02.567Z,101733.44
2023-05-20T22:53:29.327Z,101731.56
2023-05-20T22:55:55.920Z,101728.16
2023-05-20T22:58:22.555Z,101716.38
2023-05-20T23:00:50.620Z,101717.38
2023-05-20T23:03:17.203Z,101711.25
2023-05-20T23:05:43.786Z,101706.81
2023-05-20T23:08:10.374Z,101712.28
2023-05-20T23:10:37.092Z,101706.81
2023-05-20T23:13:03.747Z,101698.97
2023-05-20T23:15:30.306Z,101699.97
2023-05-20T23:17:58.318Z,101696.38
2023-05-20T23:20:25.020Z,101698.97
2023-05-20T23:22:51.548Z,101699.97
2023-05-20T23:25:18.199Z,101697.25
2023-05-20T23:27:45.049Z,101690.06
2023-05-20T23:30:11.891Z,101696.53
2023-05-20T23:32:38.726Z,101699.47
2023-05-20T23:35:07.684Z,101692.59
2023-05-20T23:37:34.314Z,101692.94
2023-05-20T23:40:00.901Z,101685.94
2023-05-20T23:42:27.448Z,101691.56
2023-05-20T23:44:54.003Z,101688.31
2023-05-20T23:47:20.634Z,101687.63
2023-05-20T23:49:49.217Z,101686.94
2023-05-20T23:52:17.534Z,101688.13
2023-05-20T23:54:44.135Z,101686.59
2023-05-20T23:57:10.720Z,101679.59
2023-05-20T23:59:37.348Z,101683.34
